Time;durP1;ratioP1;P1;durP2;ratioP2;P2;SDS_P1;SDS_P2;PMS_P1;PMS_P2;Temp;Humidity;BMP_temperature;BMP_pressure;BME280_temperature;BME280_humidity;BME280_pressure;Samples;Min_cycle;Max_cycle;Signal;HPM_P1;HPM_P2
2022/03/04 00:00:49;;;;;;;13.03;10.00;;;0.90;90.50;;;;;;5071141;28;20189;-64
2022/03/04 00:03:15;;;;;;;14.23;9.23;;;1.60;91.20;;;;;;5068243;28;20205;-64
2022/03/04 00:05:41;;;;;;;18.60;10.57;;;1.10;90.90;;;;;;5064238;28;20546;-64
2022/03/04 00:08:08;;;;;;;14.63;10.25;;;1.70;91.00;;;;;;5048247;28;20189;-64
2022/03/04 00:10:34;;;;;;;13.00;10.02;;;1.40;90.60;;;;;;5059426;28;20748;-64
2022/03/04 00:13:00;;;;;;;14.15;9.77;;;1.80;91.40;;;;;;5066070;28;20208;-64
2022/03/04 00:15:26;;;;;;;12.05;9.85;;;1.60;91.50;;;;;;5061802;28;20236;-64
2022/03/04 00:17:52;;;;;;;11.30;9.10;;;1.40;91.30;;;;;;5069531;28;20189;-64
2022/03/04 00:20:17;;;;;;;14.10;10.20;;;1.50;91.80;;;;;;5064666;28;20700;-64
2022/03/04 00:22:43;;;;;;;11.30;9.27;;;0.90;91.50;;;;;;5069292;28;20218;-64
2022/03/04 00:25:10;;;;;;;13.65;10.05;;;1.30;91.60;;;;;;5069289;28;20286;-64
2022/03/04 00:27:35;;;;;;;16.80;10.23;;;1.40;91.40;;;;;;5055061;28;20190;-64
2022/03/04 00:30:01;;;;;;;12.33;9.10;;;1.40;91.10;;;;;;5059373;28;20250;-64
2022/03/04 00:32:27;;;;;;;13.95;9.93;;;1.50;91.40;;;;;;5069077;28;20262;-64
2022/03/04 00:34:53;;;;;;;11.70;9.70;;;1.30;91.50;;;;;;5062308;28;20206;-64
2022/03/04 00:37:19;;;;;;;13.65;10.05;;;0.80;91.40;;;;;;5071086;28;20794;-64
2022/03/04 00:39:45;;;;;;;14.30;10.60;;;1.30;91.90;;;;;;5065084;28;20189;-64
2022/03/04 00:42:11;;;;;;;14.25;10.00;;;1.10;91.80;;;;;;5066601;28;20700;-64
2022/03/04 00:44:37;;;;;;;12.83;8.90;;;1.10;91.90;;;;;;5040466;28;20184;-64
2022/03/04 00:47:04;;;;;;;13.90;9.33;;;1.30;92.20;;;;;;5062301;28;20185;-64
2022/03/04 00:49:30;;;;;;;12.55;10.63;;;1.20;92.20;;;;;;5062941;28;20182;-64
2022/03/04 00:51:56;;;;;;;17.47;9.90;;;1.10;92.10;;;;;;5052757;28;20682;-64
2022/03/04 00:54:22;;;;;;;13.98;9.63;;;1.60;92.50;;;;;;5064580;28;20458;-64
2022/03/04 00:56:48;;;;;;;12.45;10.20;;;0.90;92.30;;;;;;5053952;28;20200;-64
2022/03/04 00:59:14;;;;;;;12.13;9.57;;;1.20;92.60;;;;;;5057469;28;20178;-64
2022/03/04 01:01:40;;;;;;;14.23;11.57;;;1.00;92.30;;;;;;5066080;28;20529;-64
2022/03/04 01:04:05;;;;;;;12.27;9.43;;;1.10;92.10;;;;;;5065549;28;20201;-64
2022/03/04 01:06:31;;;;;;;12.97;9.60;;;0.40;91.90;;;;;;5067196;28;20191;-64
2022/03/04 01:08:57;;;;;;;11.50;8.80;;;1.30;92.40;;;;;;5063820;28;20626;-64
2022/03/04 01:11:23;;;;;;;10.50;9.03;;;0.00;91.70;;;;;;5058703;28;20436;-64
2022/03/04 01:13:49;;;;;;;14.87;8.60;;;0.60;92.30;;;;;;5063803;28;20440;-64
2022/03/04 01:16:14;;;;;;;15.40;10.17;;;1.20;92.20;;;;;;5056169;28;20973;-64
2022/03/04 01:18:40;;;;;;;13.10;10.00;;;0.90;92.40;;;;;;5051934;28;20237;-64
2022/03/04 01:21:06;;;;;;;13.53;8.53;;;1.00;93.00;;;;;;5064278;28;20804;-65
2022/03/04 01:23:32;;;;;;;13.67;10.40;;;0.80;92.60;;;;;;5065018;28;20225;-64
2022/03/04 01:25:57;;;;;;;13.77;10.60;;;1.00;93.10;;;;;;5058892;28;20185;-63
2022/03/04 01:28:23;;;;;;;12.20;9.63;;;1.10;92.80;;;;;;5061065;28;20278;-64
2022/03/04 01:30:49;;;;;;;13.05;9.25;;;0.90;92.80;;;;;;5068677;28;20247;-65
2022/03/04 01:33:15;;;;;;;12.82;10.25;;;0.80;92.90;;;;;;5068905;28;20209;-67
2022/03/04 01:35:42;;;;;;;14.97;9.67;;;0.90;93.00;;;;;;5048756;28;20696;-66
2022/03/04 01:38:08;;;;;;;11.45;8.88;;;0.30;93.00;;;;;;5070351;28;20434;-63
2022/03/04 01:40:35;;;;;;;13.43;10.20;;;0.90;93.10;;;;;;5071188;28;20185;-64
2022/03/04 01:43:01;;;;;;;12.07;9.80;;;1.30;93.80;;;;;;5069611;28;20212;-66
2022/03/04 01:45:27;;;;;;;14.73;10.57;;;1.10;93.70;;;;;;5060749;28;20215;-70
2022/03/04 01:47:52;;;;;;;14.50;9.10;;;0.80;93.80;;;;;;5069930;28;20203;-63
2022/03/04 01:50:18;;;;;;;13.67;9.90;;;0.80;93.90;;;;;;5060182;28;20439;-64
2022/03/04 01:52:44;;;;;;;15.00;9.50;;;0.10;93.50;;;;;;5068476;28;20213;-66
2022/03/04 01:55:10;;;;;;;12.80;9.97;;;0.70;93.70;;;;;;5071080;28;20216;-67
2022/03/04 01:57:37;;;;;;;12.63;8.90;;;0.30;93.60;;;;;;5066270;28;20505;-67
2022/03/04 02:00:09;;;;;;;12.27;9.70;;;0.60;93.70;;;;;;5059698;28;20537;-64
2022/03/04 02:02:35;;;;;;;14.65;10.10;;;0.80;93.60;;;;;;5063970;28;20209;-64
2022/03/04 02:05:02;;;;;;;14.70;10.60;;;0.60;93.70;;;;;;5060512;28;20201;-65
2022/03/04 02:07:28;;;;;;;15.80;10.10;;;0.00;93.60;;;;;;5065053;28;20181;-64
2022/03/04 02:09:53;;;;;;;14.53;10.23;;;0.70;94.00;;;;;;5061511;28;20231;-64
2022/03/04 02:12:19;;;;;;;18.33;10.17;;;0.40;94.30;;;;;;5072195;28;20968;-65
2022/03/04 02:14:45;;;;;;;14.20;9.83;;;0.40;94.30;;;;;;5055787;28;20193;-68
2022/03/04 02:17:10;;;;;;;12.50;9.70;;;0.50;94.30;;;;;;5044586;28;20186;-63
2022/03/04 02:19:36;;;;;;;12.10;9.20;;;0.40;94.40;;;;;;5063590;28;20205;-64
2022/03/04 02:22:04;;;;;;;13.50;9.90;;;0.70;95.10;;;;;;5060692;28;20231;-64
2022/03/04 02:24:31;;;;;;;15.23;10.00;;;0.40;94.80;;;;;;5069839;28;20186;-69
2022/03/04 02:26:59;;;;;;;13.35;10.52;;;0.50;94.70;;;;;;5070024;28;20546;-64
2022/03/04 02:29:26;;;;;;;13.45;10.20;;;0.50;94.90;;;;;;5069563;28;20181;-65
2022/03/04 02:31:52;;;;;;;11.15;8.80;;;0.90;95.10;;;;;;5065051;28;20205;-63
2022/03/04 02:34:19;;;;;;;14.25;9.50;;;0.40;95.00;;;;;;5053031;28;20185;-71
2022/03/04 02:36:45;;;;;;;17.02;9.82;;;0.50;95.00;;;;;;5068147;28;20204;-64
2022/03/04 02:39:11;;;;;;;12.40;9.45;;;0.20;94.50;;;;;;5069143;28;20182;-66
2022/03/04 02:41:38;;;;;;;13.13;9.80;;;0.30;94.90;;;;;;5061051;28;20208;-65
2022/03/04 02:44:10;;;;;;;12.02;9.23;;;0.20;95.20;;;;;;5064261;28;20435;-62
2022/03/04 02:46:36;;;;;;;13.90;11.15;;;-0.40;95.10;;;;;;5065857;28;20188;-62
2022/03/04 02:49:06;;;;;;;17.17;11.05;;;0.30;95.70;;;;;;5067445;28;20194;-64
2022/03/04 02:51:31;;;;;;;12.15;10.02;;;0.00;95.90;;;;;;5067998;28;20211;-63
2022/03/04 02:53:57;;;;;;;15.50;10.77;;;-0.50;95.70;;;;;;5069396;28;20653;-64
2022/03/04 02:56:23;;;;;;;11.60;9.50;;;0.20;96.10;;;;;;5062082;28;20535;-65
2022/03/04 02:58:50;;;;;;;13.13;9.65;;;0.20;96.20;;;;;;5063348;28;20174;-62
2022/03/04 03:01:15;;;;;;;15.48;11.20;;;0.20;96.20;;;;;;5066832;28;20224;-62
2022/03/04 03:03:41;;;;;;;14.53;10.10;;;0.10;96.10;;;;;;5068579;28;20709;-62
2022/03/04 03:06:07;;;;;;;14.83;10.37;;;-0.30;96.40;;;;;;5057995;28;20227;-63
2022/03/04 03:08:32;;;;;;;12.50;9.20;;;0.30;96.60;;;;;;5069207;28;20208;-63
2022/03/04 03:10:58;;;;;;;14.27;10.27;;;0.20;96.80;;;;;;5062103;28;20443;-66
2022/03/04 03:13:24;;;;;;;14.23;10.30;;;-0.50;96.50;;;;;;5058771;28;20204;-62
2022/03/04 03:15:50;;;;;;;13.80;10.17;;;0.10;96.40;;;;;;5069287;28;20469;-63
2022/03/04 03:18:17;;;;;;;13.80;9.98;;;0.20;96.70;;;;;;5069632;28;20436;-62
2022/03/04 03:20:43;;;;;;;17.77;10.70;;;0.20;97.20;;;;;;5068557;28;20246;-62
2022/03/04 03:23:08;;;;;;;13.50;9.93;;;0.10;97.00;;;;;;5032274;28;1156184;-62
2022/03/04 03:25:34;;;;;;;13.77;10.90;;;-0.10;96.60;;;;;;5068681;28;20193;-63
2022/03/04 03:28:00;;;;;;;15.13;10.43;;;-0.10;96.70;;;;;;5064678;28;20593;-66
2022/03/04 03:30:26;;;;;;;14.00;10.20;;;-0.10;96.70;;;;;;5066422;28;20215;-63
2022/03/04 03:32:52;;;;;;;12.32;10.30;;;-0.10;96.80;;;;;;5072052;28;20201;-63
2022/03/04 03:35:18;;;;;;;14.73;11.17;;;0.00;96.80;;;;;;5067170;28;20213;-65
2022/03/04 03:37:44;;;;;;;14.30;10.07;;;-0.60;96.40;;;;;;5073657;28;20431;-63
2022/03/04 03:40:11;;;;;;;14.13;10.50;;;0.20;96.90;;;;;;5073011;28;20479;-65
2022/03/04 03:42:37;;;;;;;14.55;10.98;;;0.00;96.90;;;;;;5052611;28;20458;-68
2022/03/04 03:45:04;;;;;;;13.73;10.25;;;0.10;96.80;;;;;;5067705;28;20191;-63
2022/03/04 03:47:31;;;;;;;16.42;10.20;;;0.10;97.10;;;;;;5070042;28;20177;-66
2022/03/04 03:49:56;;;;;;;14.48;11.10;;;0.40;97.00;;;;;;5071127;28;20189;-66
2022/03/04 03:52:22;;;;;;;14.03;10.67;;;-0.60;96.90;;;;;;5073377;28;20287;-64
2022/03/04 03:54:48;;;;;;;13.43;9.87;;;-0.10;97.00;;;;;;5067016;28;20226;-64
2022/03/04 03:57:13;;;;;;;15.60;10.10;;;-0.10;97.10;;;;;;5073661;28;20642;-62
2022/03/04 03:59:39;;;;;;;15.97;10.20;;;0.00;96.90;;;;;;5071210;28;20184;-64
2022/03/04 04:02:05;;;;;;;14.90;10.63;;;-0.10;97.10;;;;;;5069603;28;20198;-66
2022/03/04 04:04:37;;;;;;;14.10;10.10;;;-0.20;97.00;;;;;;5065992;28;20446;-62
2022/03/04 04:07:07;;;;;;;14.68;10.88;;;0.00;97.20;;;;;;5073645;28;20188;-61
2022/03/04 04:09:33;;;;;;;14.82;11.30;;;-0.50;97.00;;;;;;5072862;28;20215;-64
2022/03/04 04:11:59;;;;;;;14.67;10.37;;;-0.20;97.30;;;;;;5073018;28;20263;-63
2022/03/04 04:14:26;;;;;;;15.35;10.70;;;-0.10;97.40;;;;;;5069063;28;20447;-66
2022/03/04 04:16:51;;;;;;;14.05;10.43;;;-0.10;97.00;;;;;;5062867;28;20233;-72
2022/03/04 04:19:17;;;;;;;13.93;10.00;;;0.00;97.70;;;;;;5069648;28;20213;-63
2022/03/04 04:21:43;;;;;;;15.17;11.27;;;0.00;98.10;;;;;;5072209;28;20545;-65
2022/03/04 04:24:08;;;;;;;15.53;10.67;;;-0.10;97.50;;;;;;5071372;28;20264;-65
2022/03/04 04:26:35;;;;;;;14.10;10.80;;;-0.10;97.70;;;;;;5072636;28;20208;-64
2022/03/04 04:29:01;;;;;;;16.08;10.30;;;-0.20;97.60;;;;;;5072676;28;20576;-66
2022/03/04 04:31:27;;;;;;;15.57;10.43;;;0.00;97.40;;;;;;5070914;28;20180;-68
2022/03/04 04:33:53;;;;;;;14.27;10.40;;;-0.60;97.30;;;;;;5062518;28;20475;-63
2022/03/04 04:36:19;;;;;;;14.33;9.83;;;-0.40;97.40;;;;;;5066571;28;20886;-62
2022/03/04 04:38:45;;;;;;;14.47;11.20;;;-0.30;97.80;;;;;;5072411;28;20536;-63
2022/03/04 04:41:11;;;;;;;15.60;11.63;;;-1.00;97.50;;;;;;5071949;28;20463;-64
2022/03/04 04:43:36;;;;;;;12.25;10.32;;;-0.60;97.90;;;;;;5071638;28;20427;-64
2022/03/04 04:46:03;;;;;;;19.80;12.30;;;-0.40;98.20;;;;;;5053704;28;20316;-63
2022/03/04 04:48:30;;;;;;;15.75;11.18;;;-0.50;98.40;;;;;;5071786;28;20192;-63
2022/03/04 04:50:59;;;;;;;23.48;11.68;;;-0.30;98.80;;;;;;5061117;28;20195;-63
2022/03/04 04:53:25;;;;;;;18.00;11.38;;;-1.10;98.40;;;;;;5069929;28;20207;-64
2022/03/04 04:55:51;;;;;;;13.93;10.60;;;-1.10;98.30;;;;;;5072330;28;20201;-64
2022/03/04 04:58:16;;;;;;;15.57;11.40;;;-0.30;98.90;;;;;;5072280;28;20219;-66
2022/03/04 05:00:42;;;;;;;16.90;11.60;;;-0.70;98.60;;;;;;5069503;28;20195;-63
2022/03/04 05:03:08;;;;;;;15.73;12.10;;;-0.50;98.60;;;;;;5058864;28;20205;-62
2022/03/04 05:05:35;;;;;;;16.13;11.67;;;-0.20;98.60;;;;;;5066243;28;20450;-62
2022/03/04 05:08:02;;;;;;;18.17;11.80;;;-1.00;98.40;;;;;;5060899;28;20200;-66
2022/03/04 05:10:28;;;;;;;16.48;12.35;;;-0.70;98.40;;;;;;5071575;28;20241;-68
2022/03/04 05:12:54;;;;;;;15.75;11.68;;;-0.50;99.00;;;;;;5069940;28;20197;-64
2022/03/04 05:15:20;;;;;;;16.30;10.93;;;-0.50;98.60;;;;;;5046752;28;20569;-66
2022/03/04 05:17:50;;;;;;;17.37;12.17;;;-0.40;98.60;;;;;;5072027;28;20253;-67
2022/03/04 05:20:17;;;;;;;15.52;11.65;;;-1.00;98.60;;;;;;5058818;28;20208;-62
2022/03/04 05:22:43;;;;;;;16.38;12.02;;;-0.40;98.90;;;;;;5069829;28;20223;-62
2022/03/04 05:25:09;;;;;;;16.42;11.32;;;-0.40;99.20;;;;;;5072307;28;20228;-63
2022/03/04 05:27:35;;;;;;;18.25;12.25;;;-0.50;99.30;;;;;;5062383;28;20212;-63
2022/03/04 05:30:00;;;;;;;14.20;10.67;;;-0.40;99.60;;;;;;5058650;28;20675;-63
2022/03/04 05:32:27;;;;;;;15.07;10.37;;;-0.40;99.70;;;;;;5068999;28;20219;-66
2022/03/04 05:34:52;;;;;;;18.15;12.30;;;-0.40;99.60;;;;;;5055522;28;20695;-67
2022/03/04 05:37:18;;;;;;;17.90;11.17;;;-0.40;99.40;;;;;;5060745;28;20282;-63
2022/03/04 05:39:44;;;;;;;15.83;12.60;;;-0.40;99.40;;;;;;5059233;28;20185;-63
2022/03/04 05:42:09;;;;;;;14.83;11.00;;;-0.60;99.70;;;;;;5057363;28;20980;-61
2022/03/04 05:44:35;;;;;;;15.90;11.30;;;-1.10;99.40;;;;;;5069383;28;20181;-65
2022/03/04 05:47:00;;;;;;;16.93;11.77;;;-0.50;99.80;;;;;;5063509;28;20190;-62
2022/03/04 05:49:26;;;;;;;16.07;11.10;;;-0.90;99.40;;;;;;5062936;28;20239;-62
2022/03/04 05:51:52;;;;;;;21.43;12.27;;;-1.10;99.30;;;;;;5037054;28;20213;-62
2022/03/04 05:54:18;;;;;;;18.83;12.88;;;-0.60;99.40;;;;;;5066389;28;20238;-62
2022/03/04 05:56:43;;;;;;;19.80;11.93;;;-0.50;99.70;;;;;;5065112;28;20214;-66
2022/03/04 05:59:09;;;;;;;16.13;12.10;;;-0.60;99.80;;;;;;5055154;28;20944;-62
2022/03/04 06:01:35;;;;;;;17.50;13.47;;;-0.60;99.90;;;;;;5061948;28;20535;-64
2022/03/04 06:04:00;;;;;;;16.40;11.83;;;-0.60;99.90;;;;;;5064892;28;20176;-63
2022/03/04 06:06:26;;;;;;;16.03;11.50;;;-0.60;99.90;;;;;;5060245;28;20295;-64
2022/03/04 06:08:52;;;;;;;16.50;11.10;;;-0.80;99.90;;;;;;5049210;28;20189;-62
2022/03/04 06:11:19;;;;;;;16.13;11.40;;;-0.80;99.50;;;;;;5070670;28;20195;-64
2022/03/04 06:13:45;;;;;;;16.80;12.35;;;-0.60;99.70;;;;;;5061606;28;20624;-61
2022/03/04 06:16:11;;;;;;;17.08;12.13;;;-0.50;99.80;;;;;;5050958;28;20219;-66
2022/03/04 06:18:37;;;;;;;19.27;11.85;;;-0.60;99.90;;;;;;5049930;28;20185;-60
2022/03/04 06:21:03;;;;;;;14.75;12.32;;;-0.40;99.90;;;;;;5064384;28;20184;-59
2022/03/04 06:23:30;;;;;;;16.30;11.27;;;-0.50;99.90;;;;;;5067296;28;20613;-60
2022/03/04 06:25:58;;;;;;;17.90;13.07;;;-0.40;99.90;;;;;;5068591;28;20545;-60
2022/03/04 06:28:25;;;;;;;20.00;12.38;;;-1.10;99.40;;;;;;5060287;28;20283;-59
2022/03/04 06:30:53;;;;;;;17.50;11.40;;;-0.20;99.90;;;;;;5057623;28;20203;-60
2022/03/04 06:33:36;;;;;;;17.40;12.80;;;-0.70;99.60;;;;;;5046684;28;20336;-59
2022/03/04 06:36:10;;;;;;;15.05;12.30;;;-0.50;99.90;;;;;;5046796;28;20204;-59
2022/03/04 06:38:39;;;;;;;16.67;12.02;;;-0.40;99.50;;;;;;5048980;28;20176;-60
2022/03/04 06:41:05;;;;;;;21.45;13.07;;;-0.40;99.70;;;;;;5059948;28;20588;-63
2022/03/04 06:43:32;;;;;;;16.15;11.98;;;-0.60;99.70;;;;;;5067170;28;20728;-65
2022/03/04 06:45:57;;;;;;;26.65;18.52;;;-0.10;99.90;;;;;;5074034;28;20650;-65
2022/03/04 06:48:23;;;;;;;18.03;12.60;;;-0.50;99.50;;;;;;5066645;28;20232;-63
2022/03/04 06:50:52;;;;;;;18.33;14.25;;;-0.50;99.50;;;;;;5056006;28;20488;-64
2022/03/04 06:53:18;;;;;;;19.00;14.65;;;-0.30;99.40;;;;;;5069608;28;20595;-62
2022/03/04 06:55:45;;;;;;;17.70;11.35;;;-0.30;99.30;;;;;;5054789;28;20295;-60
2022/03/04 06:58:11;;;;;;;16.80;12.88;;;-0.40;99.10;;;;;;5059537;28;20539;-62
2022/03/04 07:00:38;;;;;;;16.20;12.73;;;-0.70;99.10;;;;;;5064944;28;20207;-62
2022/03/04 07:03:04;;;;;;;19.40;12.55;;;-0.70;99.30;;;;;;5059942;28;20541;-60
2022/03/04 07:05:30;;;;;;;19.63;13.13;;;-0.30;99.40;;;;;;5057694;28;20679;-62
2022/03/04 07:07:55;;;;;;;17.70;13.23;;;-0.30;99.60;;;;;;5063706;28;20604;-60
2022/03/04 07:10:21;;;;;;;15.27;12.20;;;-0.70;99.60;;;;;;5061665;28;20188;-65
2022/03/04 07:12:47;;;;;;;19.73;12.93;;;-0.20;99.90;;;;;;5071765;28;20216;-60
2022/03/04 07:15:13;;;;;;;21.45;13.23;;;-0.30;99.90;;;;;;5060943;28;20561;-65
2022/03/04 07:17:39;;;;;;;19.87;12.80;;;-0.10;99.90;;;;;;5060928;28;20283;-62
2022/03/04 07:20:07;;;;;;;19.20;12.20;;;0.00;99.90;;;;;;5042833;28;20517;-60
2022/03/04 07:22:35;;;;;;;17.02;12.50;;;0.40;99.90;;;;;;5071882;28;20218;-66
2022/03/04 07:25:06;;;;;;;19.55;14.32;;;0.50;99.20;;;;;;5064429;28;20189;-65
2022/03/04 07:27:35;;;;;;;17.67;13.68;;;-0.10;98.50;;;;;;5060578;28;20186;-62
2022/03/04 07:30:04;;;;;;;25.35;15.00;;;-0.10;98.90;;;;;;5070350;28;20216;-63
2022/03/04 07:32:32;;;;;;;21.83;14.50;;;0.40;99.50;;;;;;5069935;28;20212;-64
2022/03/04 07:34:58;;;;;;;19.60;13.70;;;0.40;99.50;;;;;;5057695;28;20247;-64
2022/03/04 07:37:24;;;;;;;21.15;13.45;;;0.80;99.20;;;;;;5068098;28;20177;-62
2022/03/04 07:39:49;;;;;;;21.70;14.33;;;0.90;98.60;;;;;;5065156;28;20548;-62
2022/03/04 07:42:15;;;;;;;23.43;14.67;;;1.10;98.50;;;;;;5068377;28;20819;-63
2022/03/04 07:44:41;;;;;;;20.47;12.90;;;1.60;97.60;;;;;;5054430;28;20185;-61
2022/03/04 07:47:07;;;;;;;21.90;14.07;;;1.90;97.40;;;;;;5068515;28;20185;-61
2022/03/04 07:49:32;;;;;;;19.13;15.07;;;2.10;96.90;;;;;;5058867;28;20186;-66
2022/03/04 07:51:58;;;;;;;21.03;12.57;;;2.00;96.20;;;;;;5066163;28;20874;-63
2022/03/04 07:54:23;;;;;;;19.30;14.50;;;2.20;96.10;;;;;;5064321;28;20186;-65
2022/03/04 07:56:49;;;;;;;17.23;12.20;;;2.20;95.30;;;;;;5069748;28;20220;-64
2022/03/04 07:59:15;;;;;;;18.57;12.50;;;2.20;94.80;;;;;;5048582;28;20188;-62
2022/03/04 08:01:40;;;;;;;17.93;13.90;;;2.40;94.10;;;;;;5071778;28;20258;-62
2022/03/04 08:04:06;;;;;;;19.10;15.47;;;2.60;94.10;;;;;;5067990;28;20591;-67
2022/03/04 08:06:32;;;;;;;18.40;13.90;;;2.90;93.60;;;;;;5073819;28;20204;-59
2022/03/04 08:08:58;;;;;;;21.50;15.43;;;2.70;93.30;;;;;;5073289;28;20177;-60
2022/03/04 08:11:23;;;;;;;18.07;14.13;;;3.00;92.40;;;;;;5059650;28;20488;-59
2022/03/04 08:13:49;;;;;;;15.57;13.00;;;2.90;92.60;;;;;;5053209;28;20174;-59
2022/03/04 08:16:15;;;;;;;22.57;14.43;;;3.10;92.50;;;;;;5073786;28;20204;-59
2022/03/04 08:18:40;;;;;;;19.83;15.50;;;3.00;92.30;;;;;;5047563;28;20320;-63
2022/03/04 08:21:06;;;;;;;24.40;14.47;;;3.30;91.80;;;;;;5067341;28;20189;-61
2022/03/04 08:23:32;;;;;;;17.00;14.17;;;2.60;91.50;;;;;;5066955;28;20221;-57
2022/03/04 08:26:02;;;;;;;18.33;13.77;;;2.80;91.40;;;;;;5071410;28;20436;-58
2022/03/04 08:28:28;;;;;;;18.63;14.60;;;3.20;91.90;;;;;;5061778;28;20246;-59
2022/03/04 08:30:54;;;;;;;22.13;15.00;;;3.20;91.70;;;;;;5071646;28;20276;-58
2022/03/04 08:33:19;;;;;;;19.20;15.33;;;3.40;91.20;;;;;;5068088;28;20294;-56
2022/03/04 08:35:45;;;;;;;23.60;17.23;;;3.40;90.70;;;;;;5060106;28;20210;-68
2022/03/04 08:38:10;;;;;;;22.40;16.67;;;4.20;90.40;;;;;;5060810;28;20245;-65
2022/03/04 08:40:36;;;;;;;21.83;15.83;;;5.10;88.10;;;;;;5068204;28;20187;-65
2022/03/04 08:43:02;;;;;;;16.73;14.43;;;5.40;85.30;;;;;;5067489;28;20215;-65
2022/03/04 08:45:28;;;;;;;20.77;15.70;;;5.80;82.40;;;;;;5065729;28;20233;-65
2022/03/04 08:47:54;;;;;;;22.10;17.27;;;6.70;80.20;;;;;;5064977;28;20185;-65
2022/03/04 08:50:21;;;;;;;18.67;14.53;;;8.80;73.10;;;;;;5064346;28;20186;-67
2022/03/04 08:52:48;;;;;;;20.52;14.88;;;10.50;65.20;;;;;;5067264;28;20231;-66
2022/03/04 08:55:14;;;;;;;21.13;16.55;;;11.40;57.90;;;;;;5076998;28;20207;-63
2022/03/04 08:57:47;;;;;;;19.60;16.33;;;12.00;55.70;;;;;;5077275;28;20191;-62
2022/03/04 09:00:14;;;;;;;20.90;15.90;;;12.10;54.80;;;;;;5062614;28;20180;-64
2022/03/04 09:02:39;;;;;;;20.58;15.40;;;11.30;55.70;;;;;;5070162;28;20208;-62
2022/03/04 09:05:06;;;;;;;20.00;16.87;;;11.50;56.20;;;;;;5045764;28;20527;-62
2022/03/04 09:07:32;;;;;;;18.52;15.63;;;11.90;55.80;;;;;;5067473;28;20622;-63
2022/03/04 09:09:57;;;;;;;19.60;15.93;;;12.30;54.10;;;;;;5049425;28;20301;-59
2022/03/04 09:12:23;;;;;;;20.97;16.60;;;12.30;53.80;;;;;;5063817;28;20607;-59
2022/03/04 09:14:49;;;;;;;19.03;16.83;;;12.00;53.70;;;;;;5043166;28;20530;-60
2022/03/04 09:17:14;;;;;;;20.87;18.03;;;12.30;53.80;;;;;;5068752;28;20438;-65
2022/03/04 09:19:40;;;;;;;26.10;16.57;;;11.90;53.30;;;;;;5063417;28;20743;-60
2022/03/04 09:22:06;;;;;;;19.07;17.00;;;12.10;53.50;;;;;;5071062;28;20240;-60
2022/03/04 09:24:31;;;;;;;23.37;20.23;;;12.10;53.20;;;;;;5068369;28;20246;-62
2022/03/04 09:26:57;;;;;;;18.97;16.80;;;12.80;52.80;;;;;;5068540;28;20196;-61
2022/03/04 09:29:23;;;;;;;20.93;16.10;;;13.70;50.60;;;;;;5060356;28;20185;-63
2022/03/04 09:31:48;;;;;;;19.70;17.53;;;13.40;49.70;;;;;;5061527;28;20212;-62
2022/03/04 09:34:14;;;;;;;19.80;17.37;;;13.00;49.90;;;;;;5060118;28;20628;-63
2022/03/04 09:36:40;;;;;;;21.70;17.30;;;13.00;50.50;;;;;;5068513;28;20211;-60
2022/03/04 09:39:05;;;;;;;20.70;17.53;;;13.20;49.80;;;;;;5069125;28;20205;-63
2022/03/04 09:41:31;;;;;;;26.00;17.27;;;13.50;49.50;;;;;;5064451;28;20182;-63
2022/03/04 09:43:57;;;;;;;19.20;17.13;;;13.50;49.70;;;;;;5058881;28;20465;-61
2022/03/04 09:46:24;;;;;;;32.75;24.65;;;13.70;49.20;;;;;;5070523;28;20196;-65
2022/03/04 09:48:51;;;;;;;21.60;17.00;;;14.20;47.90;;;;;;5071973;28;20275;-65
2022/03/04 09:51:17;;;;;;;19.88;17.30;;;14.70;47.80;;;;;;5064811;28;20212;-66
2022/03/04 09:53:44;;;;;;;19.73;17.63;;;15.50;45.90;;;;;;5061577;28;20302;-65
2022/03/04 09:56:10;;;;;;;21.20;18.92;;;16.40;44.70;;;;;;5069457;28;20200;-67
2022/03/04 09:58:37;;;;;;;22.53;18.17;;;16.40;44.20;;;;;;5060953;28;20603;-65
2022/03/04 10:01:12;;;;;;;24.38;18.70;;;16.10;42.70;;;;;;5066021;28;20188;-65
2022/03/04 10:04:37;;;;;;;21.48;18.48;;;16.30;43.10;;;;;;5075474;28;20251;-60
2022/03/04 10:07:59;;;;;;;22.02;17.85;;;16.10;42.20;;;;;;5078191;28;20201;-59
2022/03/04 10:10:34;;;;;;;21.52;18.50;;;15.50;41.70;;;;;;5096314;28;20185;-58
2022/03/04 10:13:44;;;;;;;22.90;18.48;;;13.60;43.50;;;;;;5086182;28;20224;-59
2022/03/04 10:17:17;;;;;;;20.25;17.85;;;15.60;44.10;;;;;;4993146;28;20238;-59
2022/03/04 10:19:54;;;;;;;22.60;18.05;;;15.50;42.80;;;;;;4991012;28;20168;-61
2022/03/04 10:22:20;;;;;;;24.20;18.70;;;16.30;42.60;;;;;;5084827;28;20209;-59
2022/03/04 10:24:45;;;;;;;22.67;19.43;;;16.10;43.50;;;;;;5094086;28;20209;-59
2022/03/04 10:27:13;;;;;;;20.77;18.10;;;14.70;42.30;;;;;;5087306;28;20450;-59
2022/03/04 10:29:42;;;;;;;21.35;18.42;;;15.50;43.60;;;;;;5081363;28;20208;-59
2022/03/04 10:32:19;;;;;;;23.80;19.15;;;16.30;42.40;;;;;;5073923;28;20209;-59
2022/03/04 10:34:45;;;;;;;20.65;18.65;;;15.60;42.00;;;;;;5081180;28;20193;-59
2022/03/04 10:37:12;;;;;;;24.42;19.88;;;15.10;42.70;;;;;;5072010;28;20202;-59
2022/03/04 10:39:56;;;;;;;25.92;18.40;;;14.10;43.10;;;;;;5092545;28;20185;-59
2022/03/04 10:42:43;;;;;;;23.98;19.75;;;13.40;44.50;;;;;;5085339;28;20227;-59
2022/03/04 10:45:14;;;;;;;22.10;18.95;;;12.80;45.00;;;;;;5072024;28;20201;-59
2022/03/04 10:47:46;;;;;;;25.35;17.92;;;13.20;45.80;;;;;;5076698;28;20663;-59
2022/03/04 10:50:13;;;;;;;22.48;18.65;;;13.30;44.60;;;;;;5070587;28;20266;-60
2022/03/04 10:53:01;;;;;;;21.92;18.98;;;13.50;44.60;;;;;;5083239;28;20198;-59
2022/03/04 10:55:39;;;;;;;22.05;17.60;;;13.70;44.40;;;;;;5081950;28;20674;-59
2022/03/04 10:58:13;;;;;;;20.45;17.50;;;13.80;44.80;;;;;;5067736;28;20174;-59
2022/03/04 11:00:40;;;;;;;22.60;18.98;;;12.70;45.80;;;;;;5080152;28;20189;-59
2022/03/04 11:03:06;;;;;;;25.00;18.70;;;13.00;45.60;;;;;;5077162;28;20243;-59
2022/03/04 11:05:34;;;;;;;20.40;16.57;;;13.30;45.10;;;;;;5071911;28;20186;-59
2022/03/04 11:07:59;;;;;;;22.52;18.13;;;13.80;44.40;;;;;;5088293;28;20465;-59
2022/03/04 11:10:26;;;;;;;22.20;18.40;;;13.80;43.60;;;;;;5085458;28;20208;-60
2022/03/04 11:12:55;;;;;;;23.42;16.98;;;13.20;44.00;;;;;;5078637;28;20510;-60
2022/03/04 11:15:23;;;;;;;19.75;17.63;;;13.60;43.50;;;;;;5075887;28;20212;-60
2022/03/04 11:17:50;;;;;;;20.42;16.13;;;14.10;44.80;;;;;;5071374;28;20178;-60
2022/03/04 11:20:17;;;;;;;20.10;17.13;;;15.30;42.10;;;;;;5071246;28;20192;-60
2022/03/04 11:22:46;;;;;;;24.08;18.15;;;16.30;40.60;;;;;;5083050;28;20350;-60
2022/03/04 11:25:14;;;;;;;20.15;17.85;;;16.20;39.20;;;;;;5060828;28;20203;-60
2022/03/04 11:27:44;;;;;;;25.08;19.50;;;16.00;40.50;;;;;;5069214;28;20189;-60
2022/03/04 11:30:39;;;;;;;20.13;17.55;;;15.30;41.40;;;;;;5084138;28;20247;-59
2022/03/04 11:33:18;;;;;;;26.30;21.60;;;16.00;41.60;;;;;;5082088;28;20280;-60
2022/03/04 11:36:04;;;;;;;20.17;17.27;;;16.40;44.40;;;;;;5063596;28;20197;-60
2022/03/04 11:38:48;;;;;;;17.88;16.08;;;15.30;46.60;;;;;;5071824;28;20185;-60
2022/03/04 11:41:26;;;;;;;20.88;16.63;;;14.80;40.60;;;;;;5076344;28;20181;-60
2022/03/04 11:44:10;;;;;;;20.85;17.95;;;14.60;41.80;;;;;;5087477;28;20180;-60
2022/03/04 11:46:42;;;;;;;20.88;16.80;;;13.20;44.30;;;;;;5079867;28;20192;-60
2022/03/04 11:49:43;;;;;;;20.52;15.88;;;13.60;45.70;;;;;;5076703;28;20177;-60
2022/03/04 11:52:09;;;;;;;20.67;17.33;;;13.80;42.80;;;;;;5086251;28;20208;-60
2022/03/04 11:55:04;;;;;;;17.73;15.93;;;13.60;42.40;;;;;;5093241;28;20205;-60
2022/03/04 11:57:38;;;;;;;19.40;14.85;;;13.60;41.50;;;;;;5073713;28;20207;-60
2022/03/04 12:00:10;;;;;;;19.45;16.45;;;13.30;41.80;;;;;;5086955;28;20200;-60
2022/03/04 12:03:00;;;;;;;19.25;15.77;;;12.90;42.60;;;;;;5078841;28;20271;-60
2022/03/04 12:05:32;;;;;;;20.73;15.75;;;13.10;42.50;;;;;;5067767;28;20217;-61
2022/03/04 12:08:01;;;;;;;21.45;15.20;;;12.80;42.20;;;;;;5058912;28;20215;-61
2022/03/04 12:10:31;;;;;;;19.92;16.65;;;12.40;42.60;;;;;;5071120;28;20239;-61
2022/03/04 12:12:59;;;;;;;20.17;15.40;;;12.50;43.30;;;;;;5069128;28;20715;-60
2022/03/04 12:15:26;;;;;;;19.55;15.23;;;12.20;42.90;;;;;;5064336;28;20215;-60
2022/03/04 12:18:05;;;;;;;15.60;13.38;;;12.30;41.30;;;;;;5063815;28;20234;-61
2022/03/04 12:20:39;;;;;;;17.00;14.05;;;12.60;41.70;;;;;;5059435;28;20181;-59
2022/03/04 12:23:39;;;;;;;18.25;14.43;;;12.40;41.10;;;;;;5066041;28;20224;-57
2022/03/04 12:26:05;;;;;;;16.52;14.45;;;12.30;41.10;;;;;;5056258;28;20204;-58
2022/03/04 12:28:44;;;;;;;19.20;14.82;;;12.30;41.10;;;;;;5061323;28;20620;-58
2022/03/04 12:31:12;;;;;;;17.23;14.43;;;12.10;41.10;;;;;;5062233;28;20641;-58
2022/03/04 12:33:44;;;;;;;20.23;15.43;;;10.80;41.00;;;;;;5071529;28;20522;-60
2022/03/04 12:36:15;;;;;;;17.13;13.73;;;11.60;42.00;;;;;;5068183;28;20667;-60
2022/03/04 12:38:58;;;;;;;15.63;13.93;;;11.20;42.10;;;;;;5053316;28;20198;-62